Time;durP1;ratioP1;P1;durP2;ratioP2;P2;SDS_P1;SDS_P2;PMS_P1;PMS_P2;Temp;Humidity;BMP_temperature;BMP_pressure;BME280_temperature;BME280_humidity;BME280_pressure;Samples;Min_cycle;Max_cycle;Signal;HPM_P1;HPM_P2
2022/07/03 00:04:55;;;;;;;7.00;1.50;;;;;;;17.74;53.87;100112.03;10377131;28;20050;-64
2022/07/03 00:09:56;;;;;;;5.85;1.35;;;;;;;17.54;54.40;100087.19;10377859;28;20038;-64
2022/07/03 00:14:57;;;;;;;12.50;1.35;;;;;;;17.63;54.63;100110.06;10392506;28;20050;-64
2022/07/03 00:19:58;;;;;;;3.75;1.00;;;;;;;16.84;54.83;99986.19;10377267;28;20133;-65
2022/07/03 00:25:05;;;;;;;2.97;1.30;;;;;;;17.59;55.56;100111.53;10377222;28;20038;-64
2022/07/03 00:30:10;;;;;;;5.20;1.70;;;;;;;17.56;54.91;100112.81;10376331;28;20104;-64
2022/07/03 00:35:16;;;;;;;6.00;1.55;;;;;;;17.61;55.48;100120.19;10377083;28;20050;-64
2022/07/03 00:40:17;;;;;;;4.97;1.17;;;;;;;16.99;55.00;100025.25;10376178;28;20033;-64
2022/07/03 00:45:20;;;;;;;3.65;1.10;;;;;;;17.50;55.35;100112.84;10376109;28;20058;-64
2022/07/03 00:50:26;;;;;;;2.72;1.10;;;;;;;17.45;55.74;100120.75;10375342;28;20049;-64
2022/07/03 00:55:27;;;;;;;2.72;1.30;;;;;;;17.61;54.77;100140.84;10375689;28;20038;-64
2022/07/03 01:00:28;;;;;;;2.10;1.13;;;;;;;17.57;55.20;100135.91;10376069;28;20378;-64
2022/07/03 01:05:39;;;;;;;5.65;1.50;;;;;;;17.51;55.97;100134.13;10374815;28;20041;-64
2022/07/03 01:11:01;;;;;;;3.75;1.23;;;;;;;17.48;55.92;100141.78;10373969;28;20056;-64
2022/07/03 01:16:18;;;;;;;7.88;1.40;;;;;;;17.46;56.18;100143.84;10390182;28;20042;-64
2022/07/03 01:21:19;;;;;;;5.18;1.30;;;;;;;17.03;55.59;100077.47;10374809;28;20034;-64
2022/07/03 01:26:22;;;;;;;7.28;1.73;;;;;;;16.54;55.85;100034.19;10374025;28;20467;-64
2022/07/03 01:31:23;;;;;;;3.30;1.70;;;;;;;17.03;56.01;100129.28;10374306;28;20144;-64
2022/07/03 01:36:29;;;;;;;17.88;1.63;;;;;;;17.11;56.35;100168.44;10375250;28;20128;-64
2022/07/03 01:41:30;;;;;;;6.20;1.20;;;;;;;16.95;56.27;100153.66;10373510;28;20053;-64
2022/07/03 01:46:32;;;;;;;9.70;1.75;;;;;;;16.18;56.61;100034.75;10373998;28;20045;-63
2022/07/03 01:51:34;;;;;;;18.75;2.40;;;;;;;16.87;56.80;100162.81;10373746;28;20058;-65
2022/07/03 01:56:35;;;;;;;5.72;1.63;;;;;;;16.95;56.65;100168.94;10373545;28;20065;-64
2022/07/03 02:02:06;;;;;;;3.67;1.10;;;;;;;16.93;57.81;100160.28;10373508;28;20493;-64
2022/07/03 02:07:25;;;;;;;5.32;1.17;;;;;;;17.09;57.07;100173.22;10388588;28;20095;-64
2022/07/03 02:12:34;;;;;;;4.22;1.33;;;;;;;17.17;57.52;100174.81;10372958;28;20137;-64
2022/07/03 02:17:42;;;;;;;3.05;1.27;;;;;;;17.29;57.49;100176.63;10371517;28;20393;-63
2022/07/03 02:22:47;;;;;;;5.18;1.40;;;;;;;17.43;57.46;100166.59;10373553;28;20050;-64
2022/07/03 02:27:56;;;;;;;4.80;1.70;;;;;;;17.73;57.55;100182.91;10372334;28;20046;-65
2022/07/03 02:33:01;;;;;;;4.43;1.30;;;;;;;18.20;56.15;100177.97;10372786;28;20584;-64
2022/07/03 02:38:30;;;;;;;4.78;1.20;;;;;;;18.67;55.53;100193.63;10372244;28;20038;-64
2022/07/03 02:43:34;;;;;;;3.80;1.33;;;;;;;18.89;54.91;100192.13;10372904;28;20053;-65
2022/07/03 02:48:41;;;;;;;5.15;1.55;;;;;;;18.56;54.21;100051.78;10407720;28;20412;-64
2022/07/03 02:53:53;;;;;;;5.78;1.33;;;;;;;19.32;52.53;100066.41;10413062;28;20404;-64
2022/07/03 02:59:17;;;;;;;7.30;1.70;;;;;;;20.77;50.68;100174.59;10374758;28;20497;-64
2022/07/03 03:04:32;;;;;;;5.88;1.52;;;;;;;21.42;49.56;100180.47;10371241;28;20042;-64
2022/07/03 03:09:40;;;;;;;4.05;1.25;;;;;;;21.25;47.91;100058.00;10371792;28;20046;-64
2022/07/03 03:14:43;;;;;;;6.50;1.63;;;;;;;22.27;46.82;100143.41;10371535;28;20065;-65
2022/07/03 03:19:54;;;;;;;7.33;1.53;;;;;;;22.91;45.14;100158.25;10371360;28;20041;-64
2022/07/03 03:24:56;;;;;;;6.57;1.58;;;;;;;23.23;44.46;100177.31;10371163;28;20410;-64
2022/07/03 03:29:57;;;;;;;7.82;1.50;;;;;;;23.44;43.77;100183.75;10392318;28;20041;-63
2022/07/03 03:34:58;;;;;;;6.28;1.35;;;;;;;23.44;43.57;100143.09;10373420;28;20062;-64
2022/07/03 03:39:59;;;;;;;7.70;1.60;;;;;;;24.46;42.37;100179.09;10406184;28;20519;-64
2022/07/03 03:44:59;;;;;;;10.10;1.65;;;;;;;25.13;40.52;100160.31;10434978;28;20072;-64
2022/07/03 03:50:02;;;;;;;10.00;1.67;;;;;;;24.66;39.67;100077.91;10412298;28;20038;-65
2022/07/03 03:55:03;;;;;;;9.47;1.50;;;;;;;25.69;39.61;100176.72;10378224;28;20050;-66
2022/07/03 04:00:05;;;;;;;8.15;1.30;;;;;;;25.22;39.18;100131.56;10377553;28;20509;-64
2022/07/03 04:05:06;;;;;;;7.20;1.58;;;;;;;25.38;39.53;100159.59;10377368;28;20046;-65
2022/07/03 04:10:07;;;;;;;5.65;1.58;;;;;;;24.56;39.53;100058.84;10377681;28;20041;-64
2022/07/03 04:15:08;;;;;;;5.03;1.50;;;;;;;25.42;38.91;100185.13;10377545;28;20041;-65
2022/07/03 04:20:10;;;;;;;11.45;1.55;;;;;;;26.08;38.19;100173.44;10375921;28;20045;-65
2022/07/03 04:25:11;;;;;;;7.65;1.70;;;;;;;26.19;37.49;100169.63;10377537;28;20642;-65
2022/07/03 04:30:13;;;;;;;7.82;1.65;;;;;;;25.42;38.30;100175.06;10376500;28;20077;-64
2022/07/03 04:35:14;;;;;;;7.38;1.50;;;;;;;24.89;39.12;100168.97;10376820;28;20042;-66
2022/07/03 04:40:15;;;;;;;6.03;1.23;;;;;;;24.85;39.80;100173.28;10375812;28;20042;-64
2022/07/03 04:45:16;;;;;;;7.05;1.45;;;;;;;24.18;39.46;100103.50;10376391;28;20065;-64
2022/07/03 04:50:16;;;;;;;9.90;1.20;;;;;;;24.65;39.43;100178.66;10376226;28;20125;-64
2022/07/03 04:55:17;;;;;;;5.15;1.13;;;;;;;24.02;39.56;100116.13;10375464;28;20095;-64
2022/07/03 05:00:19;;;;;;;20.95;1.52;;;;;;;24.18;39.39;100125.19;10374974;28;20498;-63
2022/07/03 05:05:19;;;;;;;23.35;1.60;;;;;;;24.58;39.10;100177.00;10374962;28;20042;-64
2022/07/03 05:10:20;;;;;;;5.38;1.10;;;;;;;24.70;39.08;100170.53;10374665;28;20568;-64
2022/07/03 05:15:21;;;;;;;8.95;1.23;;;;;;;24.72;38.46;100177.34;10374907;28;20080;-68
2022/07/03 05:20:24;;;;;;;1.70;0.95;;;;;;;24.56;38.66;100152.03;10374392;28;20391;-64
2022/07/03 05:25:26;;;;;;;;;;;;;;;24.91;38.02;100187.72;10375222;28;20053;-64
2022/07/03 05:30:27;;;;;;;11.73;2.17;;;;;;;24.53;38.60;100184.28;10373989;28;20426;-63
2022/07/03 05:35:27;;;;;;;5.15;1.17;;;;;;;23.82;38.52;100044.41;10374854;28;20107;-65
2022/07/03 05:40:28;;;;;;;3.13;1.10;;;;;;;24.74;38.10;100175.19;10375169;28;20061;-65
2022/07/03 05:45:29;;;;;;;5.03;1.30;;;;;;;24.77;38.30;100168.41;10374410;28;20132;-65
2022/07/03 05:50:30;;;;;;;8.48;1.60;;;;;;;24.80;38.25;100162.44;10380844;28;20049;-65
2022/07/03 05:55:31;;;;;;;17.38;1.65;;;;;;;24.84;38.01;100141.78;10374196;28;20052;-64
2022/07/03 06:00:33;;;;;;;6.78;1.40;;;;;;;24.93;38.21;100148.34;10407848;28;20057;-64
2022/07/03 06:05:34;;;;;;;7.25;1.60;;;;;;;24.32;37.95;100017.75;10407077;28;20038;-65
2022/07/03 06:10:35;;;;;;;5.85;1.40;;;;;;;25.31;37.76;100167.16;10393210;28;20099;-64
2022/07/03 06:15:36;;;;;;;5.32;1.40;;;;;;;25.39;37.92;100172.91;10394491;28;20084;-64
2022/07/03 06:20:36;;;;;;;8.68;1.55;;;;;;;24.83;38.02;100017.91;10374208;28;20038;-67
2022/07/03 06:25:37;;;;;;;9.70;1.65;;;;;;;25.83;37.04;100175.13;10378309;28;20485;-63
2022/07/03 06:30:38;;;;;;;5.18;1.40;;;;;;;25.72;37.25;100165.28;10412947;28;20117;-64
2022/07/03 06:37:00;;;;;;;8.30;1.92;;;;;;;25.89;37.06;100163.13;10573705;27;20425;-65
2022/07/03 06:42:01;;;;;;;5.25;1.15;;;;;;;26.01;37.05;100151.16;10574890;28;20228;-63
2022/07/03 06:47:03;;;;;;;2.53;1.40;;;;;;;26.07;37.01;100153.59;10574718;28;20046;-64
2022/07/03 06:52:04;;;;;;;5.70;1.45;;;;;;;25.65;36.75;100067.63;10542217;28;20492;-63
2022/07/03 06:57:05;;;;;;;5.20;1.48;;;;;;;25.63;36.87;100042.59;10516234;28;20037;-70
2022/07/03 07:02:07;;;;;;;12.73;2.05;;;;;;;26.33;36.54;100148.09;10530778;28;20135;-70
2022/07/03 07:07:08;;;;;;;9.97;1.83;;;;;;;26.24;36.88;100106.19;10530692;28;20110;-71
2022/07/03 07:12:09;;;;;;;10.05;1.75;;;;;;;26.62;36.68;100145.53;10531470;28;20098;-70
2022/07/03 07:17:10;;;;;;;7.50;1.75;;;;;;;26.66;36.20;100113.91;10531262;28;20044;-71
2022/07/03 07:22:11;;;;;;;6.03;2.33;;;;;;;26.93;35.83;100137.22;10530174;28;20416;-69
2022/07/03 07:27:11;;;;;;;9.70;2.10;;;;;;;27.04;35.43;100138.75;10529890;28;20075;-72
2022/07/03 07:32:12;;;;;;;7.38;1.95;;;;;;;26.40;35.26;100039.66;10530229;28;20122;-73
2022/07/03 07:37:13;;;;;;;9.48;2.00;;;;;;;27.26;35.35;100139.19;10529832;28;20036;-70
2022/07/03 07:42:15;;;;;;;5.72;1.98;;;;;;;27.28;34.57;100133.44;10529229;28;20044;-70
2022/07/03 07:47:16;;;;;;;4.78;2.00;;;;;;;27.25;34.02;100114.91;10507828;28;20052;-70
2022/07/03 07:52:17;;;;;;;6.35;1.75;;;;;;;27.77;33.90;100127.84;10501405;28;20044;-71
2022/07/03 07:57:17;;;;;;;4.50;1.92;;;;;;;27.25;33.75;100074.00;10486502;28;20069;-72
2022/07/03 08:07:37;;;;;;;6.80;1.90;;;;;;;27.74;33.15;100112.03;10476931;28;20036;-70
2022/07/03 08:12:38;;;;;;;6.60;2.03;;;;;;;27.47;32.51;100027.19;10481310;28;20036;-70
2022/07/03 08:17:39;;;;;;;11.40;2.00;;;;;;;27.83;32.36;100115.00;10474417;28;20036;-70
2022/07/03 08:22:40;;;;;;;9.55;2.00;;;;;;;27.41;32.34;100018.25;10474009;28;20044;-70
2022/07/03 08:27:40;;;;;;;5.22;1.85;;;;;;;28.09;31.90;100096.44;10499553;28;20082;-71
2022/07/03 08:32:41;;;;;;;9.52;2.15;;;;;;;28.36;31.60;100116.84;10499124;28;20068;-71
2022/07/03 08:37:43;;;;;;;4.80;2.05;;;;;;;28.27;31.44;100083.09;10499735;28;20041;-71
2022/07/03 08:42:50;;;;;;;9.48;2.05;;;;;;;28.31;30.94;100119.66;10499061;28;20041;-72
2022/07/03 08:47:54;;;;;;;6.43;2.10;;;;;;;27.64;31.97;100114.88;10499620;28;20044;-71
2022/07/03 08:52:54;;;;;;;11.40;2.58;;;;;;;27.83;31.86;100084.16;10499561;28;20044;-72
2022/07/03 08:57:57;;;;;;;5.55;2.33;;;;;;;27.87;31.74;100093.38;10497427;28;20040;-72
2022/07/03 09:03:00;;;;;;;11.70;3.73;;;;;;;27.34;32.21;100072.28;10498132;28;20044;-73
2022/07/03 09:08:02;;;;;;;4.88;1.90;;;;;;;26.46;32.61;100003.13;10499016;28;20127;-72
2022/07/03 09:13:03;;;;;;;9.02;2.97;;;;;;;26.65;32.95;100052.34;10498880;28;20044;-72
2022/07/03 09:18:07;;;;;;;3.95;1.67;;;;;;;26.33;32.88;99990.13;10497503;28;20048;-70
2022/07/03 09:23:17;;;;;;;7.80;2.17;;;;;;;27.36;31.97;100033.84;10493984;28;20040;-70
2022/07/03 09:28:20;;;;;;;8.38;1.85;;;;;;;28.20;31.84;100076.06;10474662;28;20056;-72
2022/07/03 09:33:21;;;;;;;;;;;;;;;28.74;30.47;100065.00;10456717;28;20063;-72
2022/07/03 09:38:22;;;;;;;9.40;2.78;;;;;;;28.33;31.00;100060.91;10497118;28;20446;-71
2022/07/03 09:43:25;;;;;;;9.70;2.10;;;;;;;28.82;29.78;100042.47;10496662;28;20048;-71
2022/07/03 09:48:30;;;;;;;;;;;;;;;28.87;29.77;100064.28;10496319;28;20040;-69
2022/07/03 09:53:45;;;;;;;7.07;2.10;;;;;;;28.91;28.61;100054.38;10496211;28;20019;-73
2022/07/03 09:59:07;;;;;;;7.40;2.30;;;;;;;29.13;29.16;100049.09;10496861;28;20064;-72
2022/07/03 10:04:10;;;;;;;6.78;1.60;;;;;;;28.52;29.80;100050.03;10495878;28;20044;-72
2022/07/03 10:09:13;;;;;;;9.45;2.30;;;;;;;28.28;29.57;100003.59;10495558;28;20067;-72
2022/07/03 10:14:19;;;;;;;3.83;1.65;;;;;;;28.40;28.86;100035.94;10494770;28;20044;-72
2022/07/03 10:19:22;;;;;;;4.07;1.98;;;;;;;27.91;29.97;99997.00;10495578;28;20514;-71
2022/07/03 10:24:28;;;;;;;6.15;1.70;;;;;;;28.83;28.63;100016.75;10495339;28;20044;-71
2022/07/03 10:29:29;;;;;;;5.50;1.63;;;;;;;28.68;28.63;100013.16;10495882;28;20048;-71
2022/07/03 10:34:29;;;;;;;4.93;1.50;;;;;;;28.02;28.23;99887.63;10494997;28;20064;-72
2022/07/03 10:39:56;;;;;;;26.42;2.15;;;;;;;28.50;27.95;99910.16;10495972;28;20041;-71
2022/07/03 10:45:09;;;;;;;3.83;1.55;;;;;;;29.52;27.00;100023.25;10495117;28;20515;-72
2022/07/03 10:50:20;;;;;;;3.90;1.35;;;;;;;29.24;26.58;99895.75;10482178;28;20036;-72
2022/07/03 10:55:21;;;;;;;8.93;2.00;;;;;;;29.70;26.52;99968.75;10490636;28;20516;-72
2022/07/03 11:00:21;;;;;;;11.65;2.05;;;;;;;29.72;26.28;99955.59;10472037;28;20079;-72
2022/07/03 11:05:36;;;;;;;6.15;1.33;;;;;;;30.18;25.83;100001.16;10454593;28;20047;-72
2022/07/03 11:10:40;;;;;;;8.63;2.20;;;;;;;30.22;25.66;99992.06;10476280;28;20040;-72
2022/07/03 11:15:46;;;;;;;2.65;1.50;;;;;;;30.20;25.48;99996.19;10494236;28;20036;-73
2022/07/03 11:20:50;;;;;;;5.63;1.40;;;;;;;30.35;24.64;99989.59;10497709;28;20491;-71
2022/07/03 11:25:53;;;;;;;3.67;1.23;;;;;;;30.36;24.49;99977.50;10501963;28;20041;-72
2022/07/03 11:31:13;;;;;;;7.63;1.58;;;;;;;30.45;24.89;99990.19;10502678;28;20044;-72
2022/07/03 11:37:04;;;;;;;6.47;1.42;;;;;;;30.08;25.08;99984.97;10500212;28;20063;-72
2022/07/03 11:42:05;;;;;;;12.63;1.63;;;;;;;30.31;24.79;99978.44;10500974;28;20052;-72
2022/07/03 11:47:06;;;;;;;6.68;1.52;;;;;;;28.66;25.11;99790.47;10466917;28;20049;-71
2022/07/03 11:52:07;;;;;;;10.30;1.88;;;;;;;29.58;26.43;99972.78;10488418;28;20052;-70
2022/07/03 11:57:14;;;;;;;9.07;2.22;;;;;;;29.80;26.15;99979.53;10460201;28;20045;-70
2022/07/03 12:02:14;;;;;;;6.82;1.85;;;;;;;28.66;26.19;99873.28;10458796;28;20041;-71
2022/07/03 12:07:15;;;;;;;8.25;1.60;;;;;;;27.78;26.80;99784.81;10479309;28;20053;-71
2022/07/03 12:12:16;;;;;;;17.40;2.63;;;;;;;28.61;27.78;99957.25;10476693;28;20036;-72
2022/07/03 12:17:22;;;;;;;27.10;3.42;;;;;;;27.61;28.25;99882.69;10474581;28;20389;-71
2022/07/03 12:22:34;;;;;;;15.65;1.83;;;;;;;27.96;29.03;99960.59;10474319;28;20045;-72
2022/07/03 12:27:40;;;;;;;6.95;1.95;;;;;;;27.31;29.35;99860.97;10481726;28;20040;-72
2022/07/03 12:32:41;;;;;;;12.77;2.35;;;;;;;27.94;29.33;99963.66;10472351;28;20049;-71
2022/07/03 12:37:44;;;;;;;9.75;2.05;;;;;;;27.98;29.32;99975.59;10472725;28;20075;-72
2022/07/03 12:42:50;;;;;;;8.75;1.40;;;;;;;26.72;30.22;99785.03;10478274;28;20395;-72
2022/07/03 12:48:05;;;;;;;6.13;1.70;;;;;;;28.07;29.60;99980.41;10477288;28;20037;-74
2022/07/03 12:53:06;;;;;;;13.15;1.80;;;;;;;27.54;28.92;99859.31;10472497;28;20041;-71
2022/07/03 13:03:41;;;;;;;14.75;2.63;;;;;;;27.98;29.46;99969.31;10474335;28;20507;-72
2022/07/03 13:09:02;;;;;;;8.77;1.75;;;;;;;27.72;29.60;99971.53;10472146;28;20075;-74
2022/07/03 13:14:11;;;;;;;9.70;1.92;;;;;;;27.46;29.75;99980.00;10478188;28;20140;-72
2022/07/03 13:19:17;;;;;;;11.25;1.80;;;;;;;27.24;30.72;99996.03;10470091;28;20040;-73
2022/07/03 13:24:18;;;;;;;9.98;2.10;;;;;;;27.18;30.69;100010.81;10472382;28;20024;-72
2022/07/03 13:29:21;;;;;;;19.88;1.80;;;;;;;27.09;31.09;100007.88;10473290;28;20040;-72
2022/07/03 13:34:22;;;;;;;7.63;1.63;;;;;;;27.09;31.09;99996.97;10459100;28;20056;-71
2022/07/03 13:39:23;;;;;;;11.02;2.22;;;;;;;26.44;31.08;99885.47;10453981;28;20040;-71
2022/07/03 13:44:23;;;;;;;6.70;1.58;;;;;;;27.49;30.60;99984.88;10454370;28;20040;-72
2022/07/03 13:49:24;;;;;;;5.00;1.60;;;;;;;27.99;30.38;99979.13;10453742;28;20070;-71
2022/07/03 13:54:25;;;;;;;13.70;1.90;;;;;;;28.14;28.84;99978.94;10453090;28;20056;-71
2022/07/03 13:59:26;;;;;;;6.55;1.58;;;;;;;28.12;28.62;99991.25;10452433;28;20044;-71
2022/07/03 14:04:27;;;;;;;6.13;1.77;;;;;;;27.56;29.62;99942.81;10453588;28;20045;-71
2022/07/03 14:09:27;;;;;;;6.32;1.90;;;;;;;27.58;29.39;99974.13;10453729;28;20403;-71
2022/07/03 14:14:28;;;;;;;7.70;1.83;;;;;;;27.46;29.82;100007.28;10453236;28;20037;-71
2022/07/03 14:19:29;;;;;;;10.52;1.75;;;;;;;27.17;30.34;100007.28;10452430;28;20098;-71
2022/07/03 14:24:30;;;;;;;8.68;1.80;;;;;;;26.94;30.54;100033.34;10453916;28;20098;-70
2022/07/03 14:34:50;;;;;;;6.25;1.85;;;;;;;26.68;30.68;100019.06;10450365;28;20520;-71
2022/07/03 14:39:51;;;;;;;7.80;2.13;;;;;;;26.73;30.53;100024.50;10452294;28;20131;-70
2022/07/03 14:44:51;;;;;;;15.13;2.13;;;;;;;26.76;31.02;100036.75;10452374;28;20037;-70
2022/07/03 14:49:52;;;;;;;11.93;2.10;;;;;;;25.50;31.59;99826.44;10451511;28;20067;-70
2022/07/03 14:54:56;;;;;;;6.22;2.03;;;;;;;26.03;31.28;99936.69;10454828;28;20048;-70
2022/07/03 15:00:13;;;;;;;6.20;1.77;;;;;;;26.18;30.96;99958.38;10459821;28;20036;-71
2022/07/03 15:05:16;;;;;;;6.28;1.65;;;;;;;26.68;31.02;100040.88;10461718;28;20044;-71
2022/07/03 15:10:17;;;;;;;9.27;1.88;;;;;;;26.63;30.87;100043.66;10461721;28;20463;-71
2022/07/03 15:15:22;;;;;;;11.18;2.03;;;;;;;26.72;30.70;100055.56;10461394;28;20131;-73
2022/07/03 15:20:25;;;;;;;9.38;2.80;;;;;;;26.20;30.97;99980.66;10459932;28;20098;-72
2022/07/03 15:25:27;;;;;;;10.60;4.75;;;;;;;26.54;31.22;100048.06;10460334;28;20049;-71
2022/07/03 15:30:28;;;;;;;25.87;6.03;;;;;;;26.82;31.57;100065.59;10459189;28;20041;-71
2022/07/03 15:35:31;;;;;;;9.88;2.92;;;;;;;26.78;31.15;100057.16;10458915;28;20143;-71
2022/07/03 15:40:41;;;;;;;44.30;19.13;;;;;;;26.26;30.88;99979.53;10487994;28;20040;-72
2022/07/03 15:45:47;;;;;;;19.15;4.80;;;;;;;26.74;31.01;100080.59;10459686;28;20076;-71
2022/07/03 15:51:02;;;;;;;17.73;3.00;;;;;;;26.61;31.59;100078.53;10458430;28;20040;-72
2022/07/03 15:56:05;;;;;;;30.15;3.53;;;;;;;26.27;32.40;100062.88;10458870;28;20449;-72
2022/07/03 16:06:31;;;;;;;36.33;4.38;;;;;;;25.85;32.89;100057.84;10457888;28;20041;-72
2022/07/03 16:11:35;;;;;;;24.75;3.20;;;;;;;24.70;33.16;99909.78;10456733;28;20043;-71
2022/07/03 16:16:37;;;;;;;21.85;3.63;;;;;;;24.90;33.40;99955.97;10458856;28;20404;-72
2022/07/03 16:21:38;;;;;;;24.92;3.75;;;;;;;25.44;33.30;100055.97;10484164;28;20044;-67
2022/07/03 16:26:39;;;;;;;23.67;2.80;;;;;;;24.85;33.71;99972.25;10481589;28;20131;-67
2022/07/03 16:31:44;;;;;;;13.45;2.67;;;;;;;25.22;34.38;100058.19;10478230;28;20595;-64
2022/07/03 16:36:51;;;;;;;23.95;3.08;;;;;;;25.26;36.06;100097.31;10457799;28;20048;-64
2022/07/03 16:41:54;;;;;;;17.27;2.97;;;;;;;25.08;36.25;100092.38;10471531;28;20508;-64
2022/07/03 16:46:57;;;;;;;57.30;6.03;;;;;;;24.71;37.72;100066.22;10470339;28;20068;-65
2022/07/03 16:52:10;;;;;;;30.47;5.30;;;;;;;24.73;37.58;100102.09;10499205;28;20495;-64
2022/07/03 16:57:11;;;;;;;20.50;3.50;;;;;;;24.39;37.88;100094.34;10491046;28;20367;-64
2022/07/03 17:02:15;;;;;;;26.58;4.47;;;;;;;24.26;38.58;100125.53;10494060;28;20286;-64
2022/07/03 17:07:19;;;;;;;49.30;4.63;;;;;;;23.83;39.77;100086.72;10498519;28;20032;-64
2022/07/03 17:12:20;;;;;;;34.40;4.63;;;;;;;23.74;40.59;100125.47;10498423;28;20136;-64
2022/07/03 17:17:23;;;;;;;44.72;4.93;;;;;;;23.36;41.98;100138.13;10497824;28;20043;-64
2022/07/03 17:22:28;;;;;;;44.77;6.00;;;;;;;22.95;42.64;100132.34;10497431;28;20037;-64
2022/07/03 17:27:31;;;;;;;60.05;10.18;;;;;;;22.83;43.86;100146.00;10497758;28;20131;-64
2022/07/03 17:32:39;;;;;;;59.40;9.00;;;;;;;22.55;44.94;100133.47;10497089;28;20043;-64
2022/07/03 17:37:42;;;;;;;32.45;7.30;;;;;;;22.43;43.81;100162.53;10496903;28;20040;-65
2022/07/03 17:42:44;;;;;;;37.77;7.50;;;;;;;21.46;44.06;100053.78;10497998;28;20056;-67
2022/07/03 17:47:47;;;;;;;26.45;5.28;;;;;;;22.11;46.09;100152.34;10497614;28;20048;-65
2022/07/03 17:52:50;;;;;;;20.37;3.80;;;;;;;22.00;45.74;100153.25;10472734;28;20119;-65
2022/07/03 17:57:51;;;;;;;16.33;3.25;;;;;;;21.68;45.64;100128.69;10495446;28;20271;-65
2022/07/03 18:02:54;;;;;;;13.82;3.40;;;;;;;21.65;46.55;100138.13;10496129;28;20146;-65
2022/07/03 18:08:00;;;;;;;21.17;3.83;;;;;;;21.80;46.38;100188.91;10496754;28;20044;-65
2022/07/03 18:13:16;;;;;;;23.52;3.47;;;;;;;21.76;45.96;100193.19;10497440;28;20127;-65
2022/07/03 18:18:34;;;;;;;26.65;3.60;;;;;;;21.69;46.42;100187.09;10495891;28;20048;-65
2022/07/03 18:23:57;;;;;;;29.02;3.72;;;;;;;21.43;46.54;100178.56;10494465;28;20539;-65
2022/07/03 18:28:59;;;;;;;15.18;3.28;;;;;;;21.49;45.18;100199.22;10495237;28;20139;-65
2022/07/03 18:34:01;;;;;;;27.20;4.13;;;;;;;20.69;44.20;100070.50;10494823;28;20507;-65
2022/07/03 18:39:05;;;;;;;30.52;3.72;;;;;;;21.49;44.31;100210.03;10495665;28;20041;-65
2022/07/03 18:44:06;;;;;;;17.02;3.13;;;;;;;21.50;43.78;100198.16;10495143;28;20044;-65
2022/07/03 18:49:08;;;;;;;18.23;2.67;;;;;;;20.65;43.69;100074.78;10496308;28;20113;-66
2022/07/03 18:54:33;;;;;;;15.80;3.00;;;;;;;21.32;44.08;100196.44;10496245;28;20376;-65
2022/07/03 18:59:40;;;;;;;12.45;2.90;;;;;;;21.34;43.61;100201.63;10495609;28;20127;-66
2022/07/03 19:04:47;;;;;;;23.23;2.55;;;;;;;21.09;44.53;100191.13;10496040;28;20055;-65
2022/07/03 19:10:10;;;;;;;17.08;2.70;;;;;;;21.15;44.47;100198.31;10494852;28;20045;-64
2022/07/03 19:15:19;;;;;;;29.35;3.35;;;;;;;21.06;44.86;100210.53;10495489;28;20074;-64
2022/07/03 19:20:20;;;;;;;28.05;3.75;;;;;;;20.89;44.79;100195.09;10495578;28;20431;-65
2022/07/03 19:25:21;;;;;;;34.63;3.97;;;;;;;19.93;45.03;100051.69;10494354;28;20090;-65
2022/07/03 19:30:24;;;;;;;17.73;3.47;;;;;;;20.01;45.31;100080.16;10495365;28;20545;-65
2022/07/03 19:35:25;;;;;;;28.05;4.28;;;;;;;20.73;46.76;100212.03;10495012;28;20057;-66
2022/07/03 19:40:26;;;;;;;18.08;3.42;;;;;;;20.56;47.44;100189.56;10495826;28;20438;-65
2022/07/03 19:45:27;;;;;;;22.45;4.00;;;;;;;20.46;48.57;100209.00;10501441;28;20036;-65
2022/07/03 19:50:27;;;;;;;18.30;3.30;;;;;;;19.53;48.55;100084.75;10501800;28;20038;-65
2022/07/03 19:55:28;;;;;;;27.10;3.88;;;;;;;20.31;48.57;100209.47;10500886;28;20045;-66
2022/07/03 20:00:29;;;;;;;25.05;4.00;;;;;;;20.28;49.05;100212.63;10484551;28;20079;-66
2022/07/03 20:05:30;;;;;;;25.52;3.55;;;;;;;19.43;49.90;100087.16;10467862;28;20041;-65
2022/07/03 20:10:31;;;;;;;54.42;4.72;;;;;;;20.09;50.58;100211.13;10457809;28;20037;-65
2022/07/03 20:15:32;;;;;;;21.95;3.30;;;;;;;19.23;50.28;100078.59;10459332;28;20045;-66
2022/07/03 20:20:33;;;;;;;17.88;3.45;;;;;;;19.82;51.16;100212.38;10457632;28;20041;-70
2022/07/03 20:25:36;;;;;;;23.45;3.35;;;;;;;19.70;51.69;100214.22;10458956;28;20132;-66
2022/07/03 20:30:37;;;;;;;17.05;2.95;;;;;;;19.41;52.68;100188.13;10459550;28;20041;-65
2022/07/03 20:35:39;;;;;;;24.38;3.38;;;;;;;19.35;53.19;100209.56;10459220;28;20056;-65
2022/07/03 20:40:40;;;;;;;36.15;4.07;;;;;;;19.11;53.72;100199.72;10457323;28;20041;-65
2022/07/03 20:45:41;;;;;;;23.55;3.20;;;;;;;19.16;53.83;100214.16;10456774;28;20063;-65
2022/07/03 20:50:41;;;;;;;16.13;3.00;;;;;;;19.06;54.16;100216.56;10457950;28;20056;-65
2022/07/03 20:55:42;;;;;;;12.88;2.92;;;;;;;18.91;54.10;100218.84;10457296;28;20091;-65
2022/07/03 21:00:44;;;;;;;20.90;2.92;;;;;;;18.74;54.38;100210.53;10457164;28;20040;-65
2022/07/03 21:05:44;;;;;;;24.77;2.63;;;;;;;18.64;54.79;100211.03;10457885;28;20037;-65
2022/07/03 21:16:04;;;;;;;11.70;2.78;;;;;;;18.69;54.48;100207.66;10457057;28;20040;-65
2022/07/03 21:21:05;;;;;;;15.82;2.95;;;;;;;18.58;55.28;100221.88;10456959;28;20045;-65
2022/07/03 21:26:06;;;;;;;17.95;2.65;;;;;;;17.76;55.58;100101.84;10455516;28;20037;-65
2022/07/03 21:31:07;;;;;;;19.27;3.15;;;;;;;17.90;56.46;100159.03;10456481;28;20044;-65
2022/07/03 21:36:08;;;;;;;12.48;3.08;;;;;;;18.06;56.86;100214.09;10457025;28;20068;-65
2022/07/03 21:41:08;;;;;;;11.80;2.50;;;;;;;17.96;57.07;100211.06;10455383;28;20131;-64
2022/07/03 21:46:09;;;;;;;20.38;3.30;;;;;;;17.68;57.73;100198.88;10455216;28;20052;-64
2022/07/03 21:51:10;;;;;;;11.88;2.80;;;;;;;17.69;58.25;100215.81;10455338;28;20439;-65
2022/07/03 21:56:11;;;;;;;13.13;2.97;;;;;;;17.58;58.59;100214.63;10455073;28;20127;-65
2022/07/03 22:01:12;;;;;;;12.05;2.85;;;;;;;17.50;58.56;100225.63;10455342;28;20127;-65
2022/07/03 22:06:13;;;;;;;12.52;3.03;;;;;;;17.32;59.30;100215.63;10454248;28;20413;-64
2022/07/03 22:11:13;;;;;;;9.82;2.88;;;;;;;17.21;59.34;100224.38;10454922;28;20037;-65
2022/07/03 22:16:14;;;;;;;20.35;3.50;;;;;;;16.46;59.92;100104.16;10454371;28;20064;-65
2022/07/03 22:21:15;;;;;;;10.68;2.83;;;;;;;15.53;60.37;99984.66;10454230;28;20041;-64
2022/07/03 22:26:16;;;;;;;36.75;4.28;;;;;;;16.89;60.78;100200.97;10454803;28;20148;-65
2022/07/03 22:36:36;;;;;;;14.88;3.10;;;;;;;15.98;61.70;100073.16;10454776;28;20061;-65
2022/07/03 22:41:37;;;;;;;12.75;2.92;;;;;;;16.12;61.89;100118.66;10453501;28;20500;-66
2022/07/03 22:46:37;;;;;;;10.65;3.25;;;;;;;16.48;62.32;100200.44;10454830;28;20059;-64
2022/07/03 22:51:38;;;;;;;16.58;3.15;;;;;;;16.14;62.79;100167.53;10453477;28;20478;-65
2022/07/03 22:56:40;;;;;;;13.85;2.88;;;;;;;16.42;63.37;100247.69;10454078;28;20492;-65
2022/07/03 23:01:42;;;;;;;27.60;4.40;;;;;;;16.34;63.75;100235.34;10453917;28;20489;-65
2022/07/03 23:06:42;;;;;;;8.55;3.22;;;;;;;16.26;63.55;100234.72;10454341;28;20099;-64
2022/07/03 23:11:43;;;;;;;17.48;3.70;;;;;;;16.16;64.21;100224.44;10453176;28;20067;-65
2022/07/03 23:16:44;;;;;;;10.65;3.60;;;;;;;15.57;63.95;100142.19;10456683;28;20048;-64
2022/07/03 23:21:45;;;;;;;17.92;3.00;;;;;;;15.99;64.19;100215.97;10461060;28;20139;-65
2022/07/03 23:26:45;;;;;;;10.02;3.50;;;;;;;15.18;64.38;100079.56;10461951;28;20045;-64
2022/07/03 23:31:46;;;;;;;10.05;3.25;;;;;;;15.97;64.69;100204.63;10460601;28;20550;-64
2022/07/03 23:36:47;;;;;;;8.85;3.03;;;;;;;15.01;64.71;100066.59;10461406;28;20389;-64
2022/07/03 23:41:48;;;;;;;9.32;3.30;;;;;;;15.79;65.04;100197.22;10460722;28;20045;-65
2022/07/03 23:46:49;;;;;;;14.57;2.97;;;;;;;15.83;65.12;100214.53;10461051;28;20505;-65
2022/07/03 23:51:50;;;;;;;17.98;2.97;;;;;;;15.79;65.50;100221.31;10460503;28;20063;-65